Time;durP1;ratioP1;P1;durP2;ratioP2;P2;SDS_P1;SDS_P2;PMS_P1;PMS_P2;Temp;Humidity;BMP_temperature;BMP_pressure;BME280_temperature;BME280_humidity;BME280_pressure;Samples;Min_cycle;Max_cycle;Signal;HPM_P1;HPM_P2
2022/01/30 00:01:06;;;;;;;12.68;3.15;;;;;;;;;;4938028;28;20238;-37
2022/01/30 00:03:33;;;;;;;13.35;3.17;;;;;;;;;;4933503;28;20258;-37
2022/01/30 00:06:00;;;;;;;11.80;2.70;;;;;;;;;;4941029;28;20241;-36
2022/01/30 00:08:29;;;;;;;7.75;2.58;;;;;;;;;;4926060;28;20434;-38
2022/01/30 00:11:03;;;;;;;16.05;3.78;;;;;;;;;;4916586;29;20456;-37
2022/01/30 00:13:30;;;;;;;15.43;4.10;;;;;;;;;;4935320;29;20436;-40
2022/01/30 00:15:57;;;;;;;26.05;4.32;;;;;;;;;;4951546;28;20421;-40
2022/01/30 00:23:30;;;;;;;16.85;3.30;;;;;;;;;;4954867;28;20230;-40
2022/01/30 00:25:58;;;;;;;13.57;3.40;;;;;;;;;;4955746;28;20229;-40
2022/01/30 00:28:26;;;;;;;11.32;3.35;;;;;;;;;;4956103;28;20229;-40
2022/01/30 00:30:54;;;;;;;14.45;3.63;;;;;;;;;;4947852;28;20244;-40
2022/01/30 00:33:21;;;;;;;13.07;3.30;;;;;;;;;;4939301;28;20234;-40
2022/01/30 00:35:48;;;;;;;18.17;3.25;;;;;;;;;;4936878;28;21034;-40
2022/01/30 00:38:16;;;;;;;22.02;3.92;;;;;;;;;;4936847;29;20325;-40
2022/01/30 00:40:43;;;;;;;14.75;3.55;;;;;;;;;;4935858;29;20270;-40
2022/01/30 00:43:10;;;;;;;17.13;3.60;;;;;;;;;;4936638;28;20250;-39
2022/01/30 00:45:38;;;;;;;17.02;3.90;;;;;;;;;;4941438;28;21024;-39
2022/01/30 00:48:05;;;;;;;18.98;3.83;;;;;;;;;;4956220;28;20316;-40
2022/01/30 00:50:32;;;;;;;17.08;4.13;;;;;;;;;;4955564;28;20243;-40
2022/01/30 00:52:59;;;;;;;20.45;3.45;;;;;;;;;;4939499;28;20982;-40
2022/01/30 00:55:26;;;;;;;14.57;3.83;;;;;;;;;;4936540;29;20289;-39
2022/01/30 00:57:53;;;;;;;17.45;3.92;;;;;;;;;;4936495;29;20694;-40
2022/01/30 01:00:20;;;;;;;17.60;3.90;;;;;;;;;;4938248;28;20313;-39
2022/01/30 01:02:47;;;;;;;12.68;3.67;;;;;;;;;;4949128;28;20245;-40
2022/01/30 01:05:14;;;;;;;17.17;3.90;;;;;;;;;;4934433;28;20250;-40
2022/01/30 01:07:46;;;;;;;16.20;3.92;;;;;;;;;;4934075;29;20321;-40
2022/01/30 01:13:29;;;;;;;11.85;3.40;;;;;;;;;;4934437;28;20230;-40
2022/01/30 01:23:55;;;;;;;18.20;3.78;;;;;;;;;;4955022;28;20595;-39
2022/01/30 01:26:22;;;;;;;14.52;3.53;;;;;;;;;;4943988;28;20230;-40
2022/01/30 01:28:49;;;;;;;20.67;4.10;;;;;;;;;;4935898;28;20237;-39
2022/01/30 01:31:16;;;;;;;15.48;3.70;;;;;;;;;;4945154;28;20237;-39
2022/01/30 01:36:13;;;;;;;12.65;3.70;;;;;;;;;;4935073;28;20240;-40
2022/01/30 01:38:40;;;;;;;11.88;3.45;;;;;;;;;;4935728;28;20229;-39
2022/01/30 01:41:07;;;;;;;12.20;3.47;;;;;;;;;;4935380;28;20244;-40
2022/01/30 01:43:36;;;;;;;16.02;3.38;;;;;;;;;;4935382;28;20245;-40
2022/01/30 01:46:03;;;;;;;11.02;3.10;;;;;;;;;;4943599;28;20240;-39
2022/01/30 01:48:34;;;;;;;11.70;2.88;;;;;;;;;;4942699;28;20321;-41
2022/01/30 01:51:15;;;;;;;15.93;3.60;;;;;;;;;;4935944;29;20246;-40
2022/01/30 01:53:42;;;;;;;17.05;3.88;;;;;;;;;;4935689;29;20229;-39
2022/01/30 01:56:09;;;;;;;12.18;3.17;;;;;;;;;;4935278;29;20240;-39
2022/01/30 01:58:36;;;;;;;9.20;2.70;;;;;;;;;;4934891;29;21095;-41
2022/01/30 02:01:03;;;;;;;12.23;2.90;;;;;;;;;;4943195;28;20284;-39
2022/01/30 02:03:30;;;;;;;11.82;3.35;;;;;;;;;;4954871;28;20242;-38
2022/01/30 02:06:01;;;;;;;13.95;3.30;;;;;;;;;;4954061;28;20229;-40
2022/01/30 02:11:29;;;;;;;10.38;3.22;;;;;;;;;;4939224;28;20238;-39
2022/01/30 02:13:54;;;;;;;16.60;3.38;;;;;;;;;;4934752;29;20718;-39
2022/01/30 02:27:36;;;;;;;13.20;2.97;;;;;;;;;;4935623;28;20230;-39
2022/01/30 02:30:03;;;;;;;9.43;2.72;;;;;;;;;;4935543;28;20236;-40
2022/01/30 02:32:30;;;;;;;11.18;2.85;;;;;;;;;;4941845;28;20755;-40
2022/01/30 02:34:57;;;;;;;8.40;2.60;;;;;;;;;;4935194;29;20232;-39
2022/01/30 02:37:24;;;;;;;8.85;2.70;;;;;;;;;;4935280;29;20230;-40
2022/01/30 02:39:51;;;;;;;11.00;2.55;;;;;;;;;;4935513;29;20237;-40
2022/01/30 02:42:23;;;;;;;8.77;2.58;;;;;;;;;;4933818;29;20616;-40
2022/01/30 02:44:55;;;;;;;11.45;2.30;;;;;;;;;;4935115;29;20241;-39
2022/01/30 02:47:39;;;;;;;8.85;2.25;;;;;;;;;;4937156;28;20697;-40
2022/01/30 02:52:38;;;;;;;9.10;2.60;;;;;;;;;;4935399;29;20233;-40
2022/01/30 02:55:05;;;;;;;7.90;2.28;;;;;;;;;;4934334;29;20957;-40
2022/01/30 02:57:32;;;;;;;9.73;2.22;;;;;;;;;;4934370;29;20362;-40
2022/01/30 02:59:59;;;;;;;10.88;2.55;;;;;;;;;;4935407;29;20240;-39
2022/01/30 03:02:26;;;;;;;6.38;1.92;;;;;;;;;;4935305;29;20245;-39
2022/01/30 03:04:53;;;;;;;8.98;2.55;;;;;;;;;;4934929;28;20243;-40
2022/01/30 03:07:20;;;;;;;7.10;2.17;;;;;;;;;;4934945;28;20234;-40
2022/01/30 03:09:48;;;;;;;7.75;2.33;;;;;;;;;;4935546;29;20977;-40
2022/01/30 03:12:15;;;;;;;7.03;2.38;;;;;;;;;;4934870;29;20238;-40
2022/01/30 03:14:42;;;;;;;6.68;1.98;;;;;;;;;;4935132;29;20226;-40
2022/01/30 03:17:09;;;;;;;5.85;1.70;;;;;;;;;;4944009;28;20233;-40
2022/01/30 03:19:36;;;;;;;9.52;2.22;;;;;;;;;;4954061;28;20229;-40
2022/01/30 03:22:03;;;;;;;8.57;2.20;;;;;;;;;;4967697;23;20249;-34
2022/01/30 03:24:37;;;;;;;7.32;2.03;;;;;;;;;;4953460;28;20241;-33
2022/01/30 03:27:04;;;;;;;7.15;2.13;;;;;;;;;;4959642;28;20231;-33
2022/01/30 03:29:32;;;;;;;6.55;1.70;;;;;;;;;;4970991;28;21267;-33
2022/01/30 03:31:59;;;;;;;6.65;2.03;;;;;;;;;;4958518;28;20233;-34
2022/01/30 03:34:26;;;;;;;8.00;2.13;;;;;;;;;;4955053;28;20288;-34
2022/01/30 03:36:53;;;;;;;5.75;1.58;;;;;;;;;;4954020;28;20712;-33
2022/01/30 03:39:20;;;;;;;7.35;2.17;;;;;;;;;;4956741;28;20939;-33
2022/01/30 03:41:47;;;;;;;8.02;2.08;;;;;;;;;;4974379;28;20283;-33
2022/01/30 03:44:14;;;;;;;8.07;2.38;;;;;;;;;;4975319;28;20225;-34
2022/01/30 03:46:41;;;;;;;9.40;2.38;;;;;;;;;;4974904;28;20237;-34
2022/01/30 03:49:21;;;;;;;6.20;1.90;;;;;;;;;;4964497;28;20656;-34
2022/01/30 03:51:48;;;;;;;7.03;1.92;;;;;;;;;;4955746;28;20241;-33
2022/01/30 03:54:15;;;;;;;7.20;2.03;;;;;;;;;;4955800;28;20226;-33
2022/01/30 03:56:42;;;;;;;4.45;1.58;;;;;;;;;;4955945;28;20230;-33
2022/01/30 03:59:09;;;;;;;6.25;1.77;;;;;;;;;;4955349;28;20225;-34
2022/01/30 04:01:37;;;;;;;7.82;1.92;;;;;;;;;;4968312;28;20237;-34
2022/01/30 04:04:05;;;;;;;9.40;1.98;;;;;;;;;;4975002;28;20233;-34
2022/01/30 04:06:32;;;;;;;8.63;2.45;;;;;;;;;;4974966;28;20213;-34
2022/01/30 04:08:59;;;;;;;8.70;2.10;;;;;;;;;;4974745;28;20251;-33
2022/01/30 04:11:29;;;;;;;9.73;2.30;;;;;;;;;;4963431;28;20309;-33
2022/01/30 04:13:56;;;;;;;5.70;2.10;;;;;;;;;;4955156;28;20226;-34
2022/01/30 04:16:23;;;;;;;6.40;1.92;;;;;;;;;;4966293;28;20227;-33
2022/01/30 04:18:50;;;;;;;5.50;1.70;;;;;;;;;;4975125;28;20341;-34
2022/01/30 04:21:19;;;;;;;9.68;1.92;;;;;;;;;;4972485;28;21661;-32
2022/01/30 04:23:46;;;;;;;11.70;2.60;;;;;;;;;;4955493;28;20230;-34
2022/01/30 04:26:13;;;;;;;8.02;2.20;;;;;;;;;;4955596;28;20236;-34
2022/01/30 04:28:40;;;;;;;7.38;2.28;;;;;;;;;;4955489;28;20241;-33
2022/01/30 04:31:07;;;;;;;8.80;2.03;;;;;;;;;;4955401;28;20248;-32
2022/01/30 04:33:34;;;;;;;9.07;2.30;;;;;;;;;;4954818;28;20234;-33
2022/01/30 04:36:02;;;;;;;9.35;1.92;;;;;;;;;;4954773;28;20236;-32
2022/01/30 04:38:38;;;;;;;10.02;2.33;;;;;;;;;;4954970;28;21016;-34
2022/01/30 04:41:31;;;;;;;8.07;2.30;;;;;;;;;;4955106;28;20730;-33
2022/01/30 04:55:43;;;;;;;7.63;2.17;;;;;;;;;;4954002;28;20240;-34
2022/01/30 05:00:29;;;;;;;6.75;1.65;;;;;;;;;;4956869;28;20236;-34
2022/01/30 05:03:06;;;;;;;8.35;2.05;;;;;;;;;;4973688;28;20232;-33
2022/01/30 05:08:04;;;;;;;6.15;1.70;;;;;;;;;;4954884;28;20233;-32
2022/01/30 05:10:31;;;;;;;5.75;1.98;;;;;;;;;;4954979;28;20228;-34
2022/01/30 05:13:00;;;;;;;6.03;1.85;;;;;;;;;;4954527;28;20623;-33
2022/01/30 05:15:28;;;;;;;6.15;1.60;;;;;;;;;;4954386;28;20710;-33
2022/01/30 05:17:55;;;;;;;9.32;2.22;;;;;;;;;;4954126;28;20938;-34
2022/01/30 05:20:22;;;;;;;7.70;2.05;;;;;;;;;;4955151;28;20268;-33
2022/01/30 05:22:49;;;;;;;10.05;2.28;;;;;;;;;;4954228;28;20249;-34
2022/01/30 05:25:16;;;;;;;7.32;1.90;;;;;;;;;;4954490;28;20279;-34
2022/01/30 05:27:43;;;;;;;8.45;2.13;;;;;;;;;;4953893;28;20229;-34
2022/01/30 05:30:10;;;;;;;6.68;2.00;;;;;;;;;;4955016;28;20240;-33
2022/01/30 05:32:37;;;;;;;10.82;2.45;;;;;;;;;;4973788;28;20232;-34
2022/01/30 05:35:04;;;;;;;9.50;2.17;;;;;;;;;;4960958;28;20226;-33
2022/01/30 05:37:31;;;;;;;9.00;2.60;;;;;;;;;;4953944;28;20236;-34
2022/01/30 05:39:58;;;;;;;11.68;2.63;;;;;;;;;;4953793;28;20727;-32
2022/01/30 05:42:27;;;;;;;7.72;2.20;;;;;;;;;;4954146;28;20241;-33
2022/01/30 05:45:06;;;;;;;8.43;2.00;;;;;;;;;;4954029;28;20249;-32
2022/01/30 05:47:40;;;;;;;8.68;2.28;;;;;;;;;;4935211;28;20230;-34
2022/01/30 05:50:07;;;;;;;8.85;2.70;;;;;;;;;;4942754;28;20687;-33
2022/01/30 05:52:34;;;;;;;7.72;2.35;;;;;;;;;;4953885;28;21062;-32
2022/01/30 05:55:01;;;;;;;9.98;2.30;;;;;;;;;;4953531;28;20216;-33
2022/01/30 05:57:28;;;;;;;10.65;2.70;;;;;;;;;;4953651;28;20240;-33
2022/01/30 05:59:55;;;;;;;10.38;3.08;;;;;;;;;;4954363;28;20244;-34
2022/01/30 06:02:22;;;;;;;7.15;2.30;;;;;;;;;;4953789;28;20676;-33
2022/01/30 06:04:49;;;;;;;10.18;2.95;;;;;;;;;;4953946;28;20289;-34
2022/01/30 06:07:21;;;;;;;12.10;3.67;;;;;;;;;;4953980;28;20704;-33
2022/01/30 06:09:48;;;;;;;9.95;2.63;;;;;;;;;;4953814;28;20245;-33
2022/01/30 06:12:15;;;;;;;10.32;2.80;;;;;;;;;;4953303;28;20280;-33
2022/01/30 06:14:45;;;;;;;9.52;2.83;;;;;;;;;;4953851;28;20220;-32
2022/01/30 06:17:12;;;;;;;8.75;2.38;;;;;;;;;;4970427;28;20233;-34
2022/01/30 06:19:40;;;;;;;8.98;2.47;;;;;;;;;;4972949;28;20235;-34
2022/01/30 06:22:07;;;;;;;9.05;2.90;;;;;;;;;;4970864;28;20249;-34
2022/01/30 06:24:34;;;;;;;11.10;2.85;;;;;;;;;;4951884;28;20237;-32
2022/01/30 06:27:01;;;;;;;10.23;2.67;;;;;;;;;;4953721;28;20236;-33
2022/01/30 06:29:29;;;;;;;6.75;2.38;;;;;;;;;;4953558;28;20229;-33
2022/01/30 06:31:55;;;;;;;9.45;2.80;;;;;;;;;;4968385;28;20241;-32
2022/01/30 06:34:23;;;;;;;8.55;2.97;;;;;;;;;;4961825;28;20229;-33
2022/01/30 06:36:50;;;;;;;7.88;2.38;;;;;;;;;;4953247;28;20236;-34
2022/01/30 06:39:17;;;;;;;9.13;2.38;;;;;;;;;;4953554;28;20233;-33
2022/01/30 06:41:44;;;;;;;7.45;2.38;;;;;;;;;;4953208;28;20233;-33
2022/01/30 06:44:10;;;;;;;11.98;2.83;;;;;;;;;;4953165;28;20237;-33
2022/01/30 06:46:38;;;;;;;9.15;2.63;;;;;;;;;;4959310;28;20262;-33
2022/01/30 06:49:05;;;;;;;7.82;2.75;;;;;;;;;;4972781;28;20266;-33
2022/01/30 06:51:32;;;;;;;9.68;2.60;;;;;;;;;;4972645;28;20232;-32
2022/01/30 06:53:59;;;;;;;10.88;3.03;;;;;;;;;;4972638;28;20229;-32
2022/01/30 06:56:26;;;;;;;8.93;2.53;;;;;;;;;;4961084;28;20233;-33
2022/01/30 06:58:56;;;;;;;11.13;2.65;;;;;;;;;;4953257;28;20226;-34
2022/01/30 07:01:23;;;;;;;8.02;2.63;;;;;;;;;;4963850;28;21423;-33
2022/01/30 07:03:50;;;;;;;10.35;2.85;;;;;;;;;;4972447;28;20323;-34
2022/01/30 07:06:17;;;;;;;11.82;2.85;;;;;;;;;;4970188;28;20232;-33
2022/01/30 07:08:44;;;;;;;12.52;3.13;;;;;;;;;;4956412;28;20225;-34
2022/01/30 07:11:11;;;;;;;8.63;2.70;;;;;;;;;;4956609;28;20229;-33
2022/01/30 07:13:40;;;;;;;10.32;2.63;;;;;;;;;;4955912;28;20285;-34
2022/01/30 07:16:12;;;;;;;8.43;2.85;;;;;;;;;;4965543;28;20237;-34
2022/01/30 07:18:39;;;;;;;9.20;3.13;;;;;;;;;;4962364;28;20234;-34
2022/01/30 07:21:07;;;;;;;8.05;2.60;;;;;;;;;;4956076;28;20704;-33
2022/01/30 07:23:34;;;;;;;9.38;2.50;;;;;;;;;;4956536;28;20230;-32
2022/01/30 07:26:01;;;;;;;9.30;2.65;;;;;;;;;;4956280;28;20241;-35
2022/01/30 07:28:28;;;;;;;8.25;2.70;;;;;;;;;;4955702;28;20237;-34
2022/01/30 07:30:58;;;;;;;8.65;2.80;;;;;;;;;;4962646;28;20738;-34
2022/01/30 07:33:25;;;;;;;9.85;2.88;;;;;;;;;;4961003;28;20677;-32
2022/01/30 07:35:53;;;;;;;9.88;2.80;;;;;;;;;;4956317;28;20240;-33
2022/01/30 07:38:21;;;;;;;7.30;2.53;;;;;;;;;;4956384;28;20239;-33
2022/01/30 07:40:48;;;;;;;8.63;2.47;;;;;;;;;;4955424;28;20712;-34
2022/01/30 07:43:15;;;;;;;10.00;2.63;;;;;;;;;;4955850;28;20229;-33
2022/01/30 07:45:42;;;;;;;11.82;3.28;;;;;;;;;;4955391;28;20245;-34
2022/01/30 07:48:09;;;;;;;11.00;2.53;;;;;;;;;;4955368;28;21014;-32
2022/01/30 07:50:36;;;;;;;10.63;2.72;;;;;;;;;;4961900;28;20243;-33
2022/01/30 07:53:03;;;;;;;8.38;3.17;;;;;;;;;;4963544;28;20240;-34
2022/01/30 07:55:30;;;;;;;7.40;2.65;;;;;;;;;;4954879;28;20727;-33
2022/01/30 07:57:57;;;;;;;11.48;2.53;;;;;;;;;;4954435;28;20229;-34
2022/01/30 08:00:24;;;;;;;9.23;2.80;;;;;;;;;;4964883;28;20232;-33
2022/01/30 08:02:51;;;;;;;9.48;3.00;;;;;;;;;;4954923;28;20233;-33
2022/01/30 08:05:20;;;;;;;10.07;3.20;;;;;;;;;;4954160;28;20277;-33
2022/01/30 08:07:47;;;;;;;8.50;3.00;;;;;;;;;;4955041;28;20377;-33
2022/01/30 08:10:14;;;;;;;8.98;2.92;;;;;;;;;;4955117;28;20242;-34
2022/01/30 08:12:41;;;;;;;9.32;2.97;;;;;;;;;;4953892;28;20232;-34
2022/01/30 08:15:08;;;;;;;12.48;3.13;;;;;;;;;;4955384;28;20241;-34
2022/01/30 08:17:36;;;;;;;10.32;3.05;;;;;;;;;;4956162;28;20256;-34
2022/01/30 08:20:03;;;;;;;9.25;2.97;;;;;;;;;;4959004;28;20243;-33
2022/01/30 08:22:31;;;;;;;12.85;2.80;;;;;;;;;;4963620;28;20255;-33
2022/01/30 08:24:58;;;;;;;10.23;2.80;;;;;;;;;;4964719;28;20240;-34
2022/01/30 08:27:26;;;;;;;10.13;2.90;;;;;;;;;;4963526;28;20699;-34
2022/01/30 08:29:53;;;;;;;11.07;2.85;;;;;;;;;;4963675;28;20245;-33
2022/01/30 08:32:20;;;;;;;11.00;3.40;;;;;;;;;;4954674;28;20234;-35
2022/01/30 08:34:47;;;;;;;14.60;3.05;;;;;;;;;;4959975;28;20244;-32
2022/01/30 08:37:14;;;;;;;12.20;3.22;;;;;;;;;;4960104;28;20697;-32
2022/01/30 08:39:41;;;;;;;11.63;3.17;;;;;;;;;;4965320;28;20233;-33
2022/01/30 08:42:08;;;;;;;16.10;3.55;;;;;;;;;;4958587;28;20229;-34
2022/01/30 08:44:35;;;;;;;13.45;3.28;;;;;;;;;;4954547;28;20237;-32
2022/01/30 08:47:02;;;;;;;15.93;3.53;;;;;;;;;;4940535;28;20275;-31
2022/01/30 08:49:29;;;;;;;10.27;2.78;;;;;;;;;;4936636;29;20238;-33
2022/01/30 08:51:56;;;;;;;12.15;2.95;;;;;;;;;;4942846;28;20701;-33
2022/01/30 08:54:23;;;;;;;13.60;3.75;;;;;;;;;;4955740;28;20225;-33
2022/01/30 08:56:50;;;;;;;15.48;3.65;;;;;;;;;;4955162;28;20951;-33
2022/01/30 08:59:17;;;;;;;10.60;3.50;;;;;;;;;;4955729;28;20234;-33
2022/01/30 09:01:44;;;;;;;16.45;3.50;;;;;;;;;;4955912;28;20220;-33
2022/01/30 09:04:14;;;;;;;10.25;3.97;;;;;;;;;;4955685;28;20230;-32
2022/01/30 09:06:41;;;;;;;16.27;3.70;;;;;;;;;;4954933;28;20225;-32
2022/01/30 09:09:08;;;;;;;21.55;4.47;;;;;;;;;;4943025;28;20422;-33
2022/01/30 09:11:36;;;;;;;21.55;3.60;;;;;;;;;;4935699;28;20233;-33
2022/01/30 09:14:03;;;;;;;15.88;4.18;;;;;;;;;;4935698;28;20984;-34
2022/01/30 09:16:31;;;;;;;14.38;3.60;;;;;;;;;;4961756;28;20233;-34
2022/01/30 09:18:58;;;;;;;13.65;3.53;;;;;;;;;;4966629;28;20270;-32
2022/01/30 09:21:25;;;;;;;18.30;4.43;;;;;;;;;;4953432;28;20442;-33
2022/01/30 09:23:53;;;;;;;14.73;4.25;;;;;;;;;;4953877;28;20442;-33
2022/01/30 09:26:20;;;;;;;16.92;4.07;;;;;;;;;;4953875;28;20241;-31
2022/01/30 09:28:47;;;;;;;13.20;4.30;;;;;;;;;;4954260;28;20238;-33
2022/01/30 09:31:14;;;;;;;17.38;4.13;;;;;;;;;;4962779;28;20272;-32
2022/01/30 09:33:41;;;;;;;13.38;3.83;;;;;;;;;;4959683;28;20752;-32
2022/01/30 09:36:08;;;;;;;14.48;4.03;;;;;;;;;;4954257;28;20734;-31
2022/01/30 09:38:35;;;;;;;13.38;4.22;;;;;;;;;;4952388;28;20422;-32
2022/01/30 09:41:03;;;;;;;16.90;4.97;;;;;;;;;;4962496;28;20229;-32
2022/01/30 09:43:30;;;;;;;13.50;3.88;;;;;;;;;;4952596;28;20232;-33
2022/01/30 09:45:58;;;;;;;14.75;3.78;;;;;;;;;;4956825;28;20233;-30
2022/01/30 09:48:25;;;;;;;13.27;4.00;;;;;;;;;;4960034;28;20327;-29
2022/01/30 09:50:53;;;;;;;16.30;3.85;;;;;;;;;;4957766;28;20240;-30
2022/01/30 09:53:20;;;;;;;14.48;3.97;;;;;;;;;;4956427;28;20245;-29
2022/01/30 09:55:47;;;;;;;11.38;3.72;;;;;;;;;;4957375;28;20691;-30
2022/01/30 09:58:14;;;;;;;12.48;3.83;;;;;;;;;;4957924;28;20311;-30
2022/01/30 10:00:41;;;;;;;15.68;4.35;;;;;;;;;;4957720;28;20234;-30
2022/01/30 10:03:08;;;;;;;15.60;3.50;;;;;;;;;;4955987;28;20237;-30
2022/01/30 10:05:37;;;;;;;14.95;3.55;;;;;;;;;;4955781;28;20239;-29
2022/01/30 10:08:05;;;;;;;13.30;4.05;;;;;;;;;;4951898;28;21112;-29
2022/01/30 10:10:34;;;;;;;15.10;4.03;;;;;;;;;;4953849;28;20393;-29
2022/01/30 10:13:01;;;;;;;16.80;4.30;;;;;;;;;;4944646;28;20242;-29
2022/01/30 10:15:28;;;;;;;13.45;3.80;;;;;;;;;;4947465;28;21173;-32
2022/01/30 10:17:55;;;;;;;16.15;4.00;;;;;;;;;;4951078;28;21103;-29
2022/01/30 10:20:38;;;;;;;15.45;4.28;;;;;;;;;;4953507;28;20240;-30
2022/01/30 10:23:08;;;;;;;15.38;3.85;;;;;;;;;;4952655;28;20246;-30
2022/01/30 10:25:36;;;;;;;11.75;3.60;;;;;;;;;;4952874;28;20970;-30
2022/01/30 10:28:03;;;;;;;19.42;4.18;;;;;;;;;;4953688;28;20237;-29
2022/01/30 10:30:30;;;;;;;22.17;4.88;;;;;;;;;;4957764;28;20219;-30
2022/01/30 10:32:57;;;;;;;17.67;4.57;;;;;;;;;;4972940;28;20447;-30
2022/01/30 10:35:26;;;;;;;16.10;5.13;;;;;;;;;;4969516;28;20425;-29
2022/01/30 10:37:53;;;;;;;14.65;4.60;;;;;;;;;;4952498;28;21031;-29
2022/01/30 10:40:28;;;;;;;18.55;4.47;;;;;;;;;;4955173;28;21142;-29
2022/01/30 10:42:58;;;;;;;12.43;4.00;;;;;;;;;;4953404;28;20288;-29
2022/01/30 10:45:25;;;;;;;13.48;4.43;;;;;;;;;;4953181;28;20330;-29
2022/01/30 10:47:52;;;;;;;14.23;3.97;;;;;;;;;;4963946;28;20237;-29
2022/01/30 10:50:19;;;;;;;17.15;3.90;;;;;;;;;;4956441;28;20678;-29
2022/01/30 10:52:46;;;;;;;14.60;4.30;;;;;;;;;;4953398;28;20225;-28
2022/01/30 10:55:13;;;;;;;14.18;4.20;;;;;;;;;;4952873;28;20233;-29
2022/01/30 10:57:40;;;;;;;18.10;4.20;;;;;;;;;;4952670;28;20685;-29
2022/01/30 11:00:07;;;;;;;18.30;5.32;;;;;;;;;;4953616;28;20229;-30
2022/01/30 11:02:34;;;;;;;16.50;4.05;;;;;;;;;;4972727;28;21026;-27
2022/01/30 11:05:02;;;;;;;15.07;4.40;;;;;;;;;;4961939;28;20273;-29
2022/01/30 11:07:30;;;;;;;16.58;4.22;;;;;;;;;;4953348;28;20244;-29
2022/01/30 11:10:01;;;;;;;15.27;3.95;;;;;;;;;;4952510;28;21029;-29
2022/01/30 11:12:34;;;;;;;21.02;5.07;;;;;;;;;;4952760;28;20225;-30
2022/01/30 11:15:16;;;;;;;18.88;4.70;;;;;;;;;;4953031;28;20713;-29
2022/01/30 11:17:44;;;;;;;20.23;4.80;;;;;;;;;;4933831;28;20607;-28
2022/01/30 11:20:11;;;;;;;17.85;4.60;;;;;;;;;;4941994;28;20239;-30
2022/01/30 11:22:38;;;;;;;15.15;4.25;;;;;;;;;;4952324;28;20280;-30
2022/01/30 11:25:05;;;;;;;15.15;4.15;;;;;;;;;;4953136;28;20237;-28
2022/01/30 11:27:32;;;;;;;20.80;4.85;;;;;;;;;;4953054;28;20241;-30
2022/01/30 11:29:59;;;;;;;16.83;4.80;;;;;;;;;;4952818;28;20230;-28
2022/01/30 11:32:27;;;;;;;17.65;5.18;;;;;;;;;;4952980;28;20240;-28
2022/01/30 11:34:55;;;;;;;16.70;4.53;;;;;;;;;;4953144;28;20234;-29
2022/01/30 11:37:23;;;;;;;16.63;4.72;;;;;;;;;;4952487;28;20320;-29
2022/01/30 11:39:52;;;;;;;15.57;4.30;;;;;;;;;;4952881;28;20226;-29
2022/01/30 11:42:20;;;;;;;23.08;5.03;;;;;;;;;;4951982;28;20252;-29
2022/01/30 11:44:47;;;;;;;17.38;5.45;;;;;;;;;;4952600;28;20241;-30
2022/01/30 11:47:14;;;;;;;16.35;4.57;;;;;;;;;;4985007;28;20272;-29
2022/01/30 11:49:41;;;;;;;14.30;4.38;;;;;;;;;;4972115;28;20221;-29
2022/01/30 11:52:10;;;;;;;16.38;4.70;;;;;;;;;;4971348;28;20239;-30
2022/01/30 11:54:37;;;;;;;19.63;5.10;;;;;;;;;;4956034;28;20230;-30
2022/01/30 11:57:03;;;;;;;18.95;5.07;;;;;;;;;;4955883;28;20256;-30
2022/01/30 11:59:31;;;;;;;19.85;5.30;;;;;;;;;;4955751;28;20230;-29
2022/01/30 12:01:58;;;;;;;17.42;5.35;;;;;;;;;;4970413;28;20679;-31
2022/01/30 12:04:27;;;;;;;18.83;5.38;;;;;;;;;;4963549;28;20320;-29
2022/01/30 12:06:53;;;;;;;21.13;5.35;;;;;;;;;;4955628;28;20245;-29
2022/01/30 12:09:22;;;;;;;13.00;4.22;;;;;;;;;;4955340;28;20727;-28
2022/01/30 12:11:49;;;;;;;17.65;4.72;;;;;;;;;;4955667;28;20229;-29
2022/01/30 12:14:16;;;;;;;18.38;4.80;;;;;;;;;;4955016;28;20234;-29
2022/01/30 12:16:43;;;;;;;13.25;3.80;;;;;;;;;;4968905;28;20229;-30
2022/01/30 12:19:13;;;;;;;17.38;5.00;;;;;;;;;;4975097;28;20217;-29
2022/01/30 12:21:40;;;;;;;14.20;5.10;;;;;;;;;;4974653;28;20327;-28
2022/01/30 12:24:07;;;;;;;17.80;4.72;;;;;;;;;;4974740;28;20717;-28
2022/01/30 12:26:39;;;;;;;15.40;4.45;;;;;;;;;;4973324;28;21107;-29
2022/01/30 12:29:06;;;;;;;16.80;4.80;;;;;;;;;;4960207;28;21051;-28
2022/01/30 12:31:34;;;;;;;11.77;3.80;;;;;;;;;;4967102;28;20339;-28
2022/01/30 12:34:01;;;;;;;15.60;4.50;;;;;;;;;;4974873;28;20223;-29
2022/01/30 12:36:30;;;;;;;15.18;4.72;;;;;;;;;;4971132;28;20266;-29
2022/01/30 12:38:57;;;;;;;15.10;4.55;;;;;;;;;;4955259;28;20285;-28
2022/01/30 12:41:24;;;;;;;16.15;4.90;;;;;;;;;;4955251;28;20234;-29
2022/01/30 12:43:57;;;;;;;17.58;4.63;;;;;;;;;;4955231;28;20806;-28
2022/01/30 12:46:24;;;;;;;17.65;4.72;;;;;;;;;;4965883;28;20288;-28
2022/01/30 12:48:51;;;;;;;14.10;4.40;;;;;;;;;;4959715;28;20256;-29
2022/01/30 12:51:18;;;;;;;15.15;3.92;;;;;;;;;;4954445;28;20226;-30
2022/01/30 12:53:45;;;;;;;11.65;4.35;;;;;;;;;;4955013;28;20225;-29
2022/01/30 12:56:12;;;;;;;18.63;5.00;;;;;;;;;;4955303;28;20225;-27
2022/01/30 12:58:39;;;;;;;15.70;5.00;;;;;;;;;;4954803;28;20237;-29
2022/01/30 13:01:07;;;;;;;15.57;4.45;;;;;;;;;;4963050;28;20229;-29
2022/01/30 13:03:35;;;;;;;15.18;4.22;;;;;;;;;;4974097;28;20315;-29
2022/01/30 13:06:02;;;;;;;15.13;4.15;;;;;;;;;;4974398;28;20251;-29
2022/01/30 13:08:29;;;;;;;13.88;4.63;;;;;;;;;;4974185;28;20231;-28
2022/01/30 13:10:56;;;;;;;14.18;4.03;;;;;;;;;;4958806;28;20236;-27
2022/01/30 13:13:23;;;;;;;13.48;4.28;;;;;;;;;;4954870;28;20240;-30
2022/01/30 13:15:50;;;;;;;14.95;4.50;;;;;;;;;;4960322;28;20237;-29
2022/01/30 13:18:17;;;;;;;14.00;4.53;;;;;;;;;;4973993;28;20229;-30
2022/01/30 13:20:46;;;;;;;18.35;5.28;;;;;;;;;;4968288;28;20234;-29
2022/01/30 13:23:13;;;;;;;20.88;4.65;;;;;;;;;;4954452;28;20248;-29
2022/01/30 13:25:39;;;;;;;17.17;4.60;;;;;;;;;;4954500;28;20263;-28
2022/01/30 13:28:06;;;;;;;16.60;4.43;;;;;;;;;;4954603;28;20942;-29
2022/01/30 13:30:33;;;;;;;13.65;4.43;;;;;;;;;;4954368;28;20256;-29
2022/01/30 13:33:01;;;;;;;17.58;5.05;;;;;;;;;;4953858;28;20242;-30
2022/01/30 13:35:31;;;;;;;21.65;5.68;;;;;;;;;;4954516;28;20236;-28
2022/01/30 13:38:00;;;;;;;14.82;4.78;;;;;;;;;;4954511;28;20218;-28
2022/01/30 13:40:36;;;;;;;14.60;4.55;;;;;;;;;;4953729;28;20257;-29
2022/01/30 13:43:12;;;;;;;12.82;4.63;;;;;;;;;;4953658;28;20233;-27
2022/01/30 13:48:06;;;;;;;18.55;4.90;;;;;;;;;;4973338;28;20556;-28
2022/01/30 13:50:34;;;;;;;15.70;4.30;;;;;;;;;;4973847;28;20229;-28
2022/01/30 13:53:01;;;;;;;16.05;5.07;;;;;;;;;;4973738;28;20239;-31
2022/01/30 13:55:28;;;;;;;12.35;4.13;;;;;;;;;;4953896;28;20328;-28
2022/01/30 13:57:56;;;;;;;16.98;4.40;;;;;;;;;;4954166;28;20346;-29
2022/01/30 14:00:24;;;;;;;14.98;4.10;;;;;;;;;;4956762;28;20239;-28
2022/01/30 14:02:52;;;;;;;15.77;4.50;;;;;;;;;;4957463;28;20689;-29
2022/01/30 14:05:19;;;;;;;12.38;3.88;;;;;;;;;;4952829;28;20248;-29
2022/01/30 14:07:46;;;;;;;13.40;4.07;;;;;;;;;;4953880;28;20721;-29
2022/01/30 14:10:13;;;;;;;12.23;3.95;;;;;;;;;;4953938;28;20308;-28
2022/01/30 14:12:40;;;;;;;12.93;4.15;;;;;;;;;;4953872;28;20229;-29
2022/01/30 14:15:09;;;;;;;13.93;4.20;;;;;;;;;;4952647;28;20230;-28
2022/01/30 14:17:40;;;;;;;11.85;3.97;;;;;;;;;;4934670;28;20217;-29
2022/01/30 14:20:10;;;;;;;12.68;4.30;;;;;;;;;;4934681;29;20235;-29
2022/01/30 14:22:37;;;;;;;15.88;4.68;;;;;;;;;;4933958;28;20252;-29
2022/01/30 14:25:05;;;;;;;13.38;4.15;;;;;;;;;;4939760;28;20244;-28
2022/01/30 14:27:32;;;;;;;13.80;4.47;;;;;;;;;;4953022;28;20245;-29
2022/01/30 14:30:03;;;;;;;16.95;4.50;;;;;;;;;;4952794;28;20228;-29
2022/01/30 14:32:30;;;;;;;16.23;3.92;;;;;;;;;;4934345;28;20990;-29
2022/01/30 14:34:59;;;;;;;13.13;4.32;;;;;;;;;;4934257;29;20240;-30
2022/01/30 14:37:26;;;;;;;16.15;4.72;;;;;;;;;;4936720;28;20235;-29
2022/01/30 14:39:53;;;;;;;17.27;4.57;;;;;;;;;;4953579;28;20232;-30
2022/01/30 14:42:20;;;;;;;12.48;3.78;;;;;;;;;;4953437;28;20233;-29
2022/01/30 14:44:47;;;;;;;17.13;4.43;;;;;;;;;;4953623;28;20244;-29
2022/01/30 14:47:14;;;;;;;13.90;4.20;;;;;;;;;;4970745;28;20240;-28
2022/01/30 14:49:41;;;;;;;14.35;4.30;;;;;;;;;;4955939;28;20241;-30
2022/01/30 14:52:08;;;;;;;12.35;3.88;;;;;;;;;;4953761;28;20328;-29
2022/01/30 14:54:35;;;;;;;13.15;4.00;;;;;;;;;;4953253;28;20225;-30
2022/01/30 14:57:03;;;;;;;14.55;4.25;;;;;;;;;;4953157;28;20225;-29
2022/01/30 14:59:30;;;;;;;15.52;4.32;;;;;;;;;;4952635;28;20229;-29
2022/01/30 15:01:57;;;;;;;15.40;4.43;;;;;;;;;;4968051;28;20241;-28
2022/01/30 15:04:25;;;;;;;16.63;4.85;;;;;;;;;;4972854;28;20791;-29
2022/01/30 15:06:52;;;;;;;17.63;4.63;;;;;;;;;;4972486;28;20318;-29
2022/01/30 15:09:19;;;;;;;13.80;4.35;;;;;;;;;;4972475;28;20308;-29
2022/01/30 15:11:46;;;;;;;12.25;4.25;;;;;;;;;;4958308;28;20696;-28
2022/01/30 15:14:13;;;;;;;13.93;4.03;;;;;;;;;;4953146;28;20243;-29
2022/01/30 15:19:07;;;;;;;16.52;4.38;;;;;;;;;;4967804;28;20233;-29
2022/01/30 15:21:34;;;;;;;11.77;4.22;;;;;;;;;;4951884;28;20673;-29
2022/01/30 15:24:01;;;;;;;12.35;3.85;;;;;;;;;;4952824;28;20237;-30
2022/01/30 15:26:28;;;;;;;15.15;4.53;;;;;;;;;;4953008;28;20246;-29
2022/01/30 15:28:55;;;;;;;17.10;4.53;;;;;;;;;;4955608;28;20233;-29
2022/01/30 15:31:22;;;;;;;13.77;4.28;;;;;;;;;;4966749;28;20233;-29
2022/01/30 15:33:49;;;;;;;12.75;3.90;;;;;;;;;;4961496;28;20242;-30